sensor_id;sensor_type;location;lat;lon;timestamp;P1;durP1;ratioP1;P2;durP2;ratioP2
8540;SDS011;4308;51.294;6.590;2024-01-30T19:16:06;7.67;;;4.53;;
8540;SDS011;4308;51.294;6.590;2024-01-30T19:18:34;8.63;;;4.40;;
8540;SDS011;4308;51.294;6.590;2024-01-30T19:21:02;4.47;;;4.10;;
8540;SDS011;4308;51.294;6.590;2024-01-30T19:23:29;7.57;;;4.37;;
8540;SDS011;4308;51.294;6.590;2024-01-30T19:25:57;7.33;;;5.17;;
8540;SDS011;4308;51.294;6.590;2024-01-30T19:28:25;7.13;;;3.97;;
8540;SDS011;4308;51.294;6.590;2024-01-30T19:30:52;7.67;;;4.07;;
8540;SDS011;4308;51.294;6.590;2024-01-30T19:33:20;6.20;;;4.43;;
8540;SDS011;4308;51.294;6.590;2024-01-30T19:35:47;5.80;;;4.40;;
8540;SDS011;4308;51.294;6.590;2024-01-30T19:38:15;6.13;;;4.20;;
8540;SDS011;4308;51.294;6.590;2024-01-30T19:40:43;5.83;;;4.30;;
8540;SDS011;4308;51.294;6.590;2024-01-30T19:43:11;6.77;;;4.53;;
8540;SDS011;4308;51.294;6.590;2024-01-30T19:45:38;9.23;;;4.80;;
8540;SDS011;4308;51.294;6.590;2024-01-30T19:48:06;6.50;;;4.93;;
8540;SDS011;4308;51.294;6.590;2024-01-30T19:50:34;7.20;;;5.33;;
8540;SDS011;4308;51.294;6.590;2024-01-30T19:53:02;9.50;;;5.80;;
8540;SDS011;4308;51.294;6.590;2024-01-30T19:55:29;8.67;;;6.30;;
8540;SDS011;4308;51.294;6.590;2024-01-30T19:57:57;10.03;;;6.33;;
8540;SDS011;4308;51.294;6.590;2024-01-30T20:00:24;7.27;;;6.37;;
8540;SDS011;4308;51.294;6.590;2024-01-30T20:02:58;7.60;;;6.53;;
8540;SDS011;4308;51.294;6.590;2024-01-30T20:06:04;10.10;;;7.63;;
8540;SDS011;4308;51.294;6.590;2024-01-30T20:08:32;8.80;;;6.37;;
8540;SDS011;4308;51.294;6.590;2024-01-30T20:11:00;8.87;;;6.80;;
8540;SDS011;4308;51.294;6.590;2024-01-30T20:13:27;8.70;;;7.43;;
8540;SDS011;4308;51.294;6.590;2024-01-30T20:15:55;11.77;;;6.93;;
8540;SDS011;4308;51.294;6.590;2024-01-30T20:18:23;9.27;;;6.97;;
8540;SDS011;4308;51.294;6.590;2024-01-30T20:20:51;11.93;;;7.40;;
8540;SDS011;4308;51.294;6.590;2024-01-30T20:23:18;8.90;;;7.07;;
8540;SDS011;4308;51.294;6.590;2024-01-30T20:25:46;10.27;;;7.03;;
8540;SDS011;4308;51.294;6.590;2024-01-30T20:28:14;9.70;;;7.77;;
8540;SDS011;4308;51.294;6.590;2024-01-30T20:30:42;8.63;;;6.80;;
8540;SDS011;4308;51.294;6.590;2024-01-30T20:33:10;8.90;;;7.30;;
8540;SDS011;4308;51.294;6.590;2024-01-30T20:35:38;8.77;;;7.30;;
8540;SDS011;4308;51.294;6.590;2024-01-30T20:38:08;9.40;;;8.40;;
8540;SDS011;4308;51.294;6.590;2024-01-30T20:40:36;14.40;;;8.13;;
8540;SDS011;4308;51.294;6.590;2024-01-30T20:43:04;14.67;;;9.07;;
8540;SDS011;4308;51.294;6.590;2024-01-30T20:45:32;12.70;;;8.00;;
8540;SDS011;4308;51.294;6.590;2024-01-30T20:48:00;10.87;;;8.13;;
8540;SDS011;4308;51.294;6.590;2024-01-30T20:50:28;10.20;;;7.80;;
8540;SDS011;4308;51.294;6.590;2024-01-30T20:52:56;10.90;;;8.00;;
8540;SDS011;4308;51.294;6.590;2024-01-30T20:55:24;12.13;;;8.60;;
8540;SDS011;4308;51.294;6.590;2024-01-30T20:57:51;12.53;;;8.63;;
8540;SDS011;4308;51.294;6.590;2024-01-30T21:00:19;11.13;;;8.70;;
8540;SDS011;4308;51.294;6.590;2024-01-30T21:02:47;18.00;;;10.20;;
8540;SDS011;4308;51.294;6.590;2024-01-30T21:05:15;10.57;;;8.87;;
8540;SDS011;4308;51.294;6.590;2024-01-30T21:07:43;14.63;;;9.13;;
8540;SDS011;4308;51.294;6.590;2024-01-30T21:10:10;13.57;;;9.13;;
8540;SDS011;4308;51.294;6.590;2024-01-30T21:12:38;11.63;;;8.83;;
8540;SDS011;4308;51.294;6.590;2024-01-30T21:15:06;14.13;;;8.57;;
8540;SDS011;4308;51.294;6.590;2024-01-30T21:17:34;15.03;;;9.43;;
8540;SDS011;4308;51.294;6.590;2024-01-30T21:20:02;14.67;;;9.47;;
8540;SDS011;4308;51.294;6.590;2024-01-30T21:22:30;12.77;;;9.70;;
8540;SDS011;4308;51.294;6.590;2024-01-30T21:24:58;12.47;;;9.53;;
8540;SDS011;4308;51.294;6.590;2024-01-30T21:27:26;12.17;;;9.23;;
8540;SDS011;4308;51.294;6.590;2024-01-30T21:29:54;11.20;;;8.97;;
8540;SDS011;4308;51.294;6.590;2024-01-30T21:32:22;15.03;;;9.80;;
8540;SDS011;4308;51.294;6.590;2024-01-30T21:34:49;12.70;;;9.57;;
8540;SDS011;4308;51.294;6.590;2024-01-30T21:37:17;13.33;;;9.93;;
8540;SDS011;4308;51.294;6.590;2024-01-30T21:39:45;15.13;;;10.13;;
8540;SDS011;4308;51.294;6.590;2024-01-30T21:42:12;14.43;;;11.03;;
8540;SDS011;4308;51.294;6.590;2024-01-30T21:44:40;13.83;;;10.50;;
8540;SDS011;4308;51.294;6.590;2024-01-30T21:47:08;15.10;;;11.03;;
8540;SDS011;4308;51.294;6.590;2024-01-30T21:49:37;17.93;;;11.60;;
8540;SDS011;4308;51.294;6.590;2024-01-30T21:52:05;15.83;;;11.77;;
8540;SDS011;4308;51.294;6.590;2024-01-30T21:54:34;14.83;;;11.67;;
8540;SDS011;4308;51.294;6.590;2024-01-30T21:57:01;16.67;;;11.90;;
8540;SDS011;4308;51.294;6.590;2024-01-30T21:59:29;14.73;;;11.43;;
8540;SDS011;4308;51.294;6.590;2024-01-30T22:01:57;19.03;;;12.67;;
8540;SDS011;4308;51.294;6.590;2024-01-30T22:04:25;20.83;;;12.63;;
8540;SDS011;4308;51.294;6.590;2024-01-30T22:06:53;19.67;;;13.23;;
8540;SDS011;4308;51.294;6.590;2024-01-30T22:09:21;16.73;;;12.27;;
